Time;durP1;ratioP1;P1;durP2;ratioP2;P2;SDS_P1;SDS_P2;PMS_P1;PMS_P2;Temp;Humidity;BMP_temperature;BMP_pressure;BME280_temperature;BME280_humidity;BME280_pressure;Samples;Min_cycle;Max_cycle;Signal;HPM_P1;HPM_P2
2021/03/21 00:02:32;;;;;;;16.73;10.13;;;7.20;99.90;;;;;;4968812;28;20217;-76
2021/03/21 00:05:17;;;;;;;14.97;10.50;;;7.20;99.90;;;;;;4974696;28;20258;-76
2021/03/21 00:08:05;;;;;;;15.40;10.47;;;7.20;99.90;;;;;;4961380;28;20205;-76
2021/03/21 00:10:52;;;;;;;15.70;10.10;;;7.20;99.90;;;;;;4964934;28;20294;-76
2021/03/21 00:13:37;;;;;;;16.03;10.53;;;7.20;99.90;;;;;;4974401;28;20209;-76
2021/03/21 00:16:22;;;;;;;17.03;10.70;;;7.20;99.90;;;;;;4967843;28;20281;-76
2021/03/21 00:19:07;;;;;;;14.57;9.47;;;7.20;99.90;;;;;;4954857;28;20206;-76
2021/03/21 00:21:52;;;;;;;17.63;11.97;;;7.20;99.90;;;;;;4968583;28;20209;-76
2021/03/21 00:24:38;;;;;;;13.37;8.40;;;7.20;99.90;;;;;;4956502;28;20210;-76
2021/03/21 00:27:22;;;;;;;16.00;9.67;;;7.20;99.90;;;;;;4974676;28;20213;-76
2021/03/21 00:30:11;;;;;;;14.20;9.43;;;7.20;99.90;;;;;;4968779;28;20237;-75
2021/03/21 00:32:56;;;;;;;13.43;8.57;;;7.20;99.90;;;;;;4969092;28;20201;-75
2021/03/21 00:35:41;;;;;;;13.03;8.27;;;7.20;99.90;;;;;;4973042;28;20233;-76
2021/03/21 00:38:30;;;;;;;10.97;7.43;;;7.20;99.90;;;;;;4973913;28;20232;-75
2021/03/21 00:41:18;;;;;;;11.90;8.10;;;7.20;99.90;;;;;;4956456;28;20573;-76
2021/03/21 00:44:03;;;;;;;11.50;7.50;;;7.20;99.90;;;;;;4970027;28;20205;-76
2021/03/21 00:46:48;;;;;;;11.83;7.53;;;7.20;99.90;;;;;;4973971;28;20633;-76
2021/03/21 00:49:33;;;;;;;10.43;7.03;;;7.20;99.90;;;;;;4974013;28;20680;-76
2021/03/21 00:52:18;;;;;;;13.73;7.60;;;7.20;99.90;;;;;;4968149;28;20624;-76
2021/03/21 00:55:03;;;;;;;10.77;6.60;;;7.20;99.90;;;;;;4973747;28;20265;-76
2021/03/21 00:57:49;;;;;;;9.80;6.13;;;7.20;99.90;;;;;;4973089;28;20225;-75
2021/03/21 01:00:36;;;;;;;7.13;5.27;;;7.20;99.90;;;;;;4962093;28;20258;-76
2021/03/21 01:03:22;;;;;;;7.83;5.20;;;7.20;99.90;;;;;;4961277;28;20209;-75
2021/03/21 01:06:08;;;;;;;6.70;4.83;;;7.20;99.90;;;;;;4972716;28;20221;-75
2021/03/21 01:08:54;;;;;;;7.27;4.63;;;7.20;99.90;;;;;;4966144;28;20239;-76
2021/03/21 01:11:39;;;;;;;7.77;5.00;;;7.20;99.90;;;;;;4962867;28;20228;-76
2021/03/21 01:14:25;;;;;;;9.77;4.70;;;7.20;99.90;;;;;;4968053;28;20277;-76
2021/03/21 01:17:10;;;;;;;7.50;4.57;;;7.10;99.90;;;;;;4973342;28;20264;-76
2021/03/21 01:19:54;;;;;;;7.37;3.90;;;7.10;99.90;;;;;;4968341;28;20703;-76
2021/03/21 01:22:39;;;;;;;5.20;3.50;;;7.10;99.90;;;;;;4964873;28;20221;-75
2021/03/21 01:25:26;;;;;;;4.27;3.07;;;7.10;99.90;;;;;;4962320;28;20232;-75
2021/03/21 01:28:23;;;;;;;5.63;3.40;;;7.10;99.90;;;;;;4968490;28;20214;-76
2021/03/21 01:31:11;;;;;;;5.07;3.73;;;7.10;99.90;;;;;;4971449;28;20233;-76
2021/03/21 01:33:56;;;;;;;6.17;3.57;;;7.10;99.90;;;;;;4971108;28;20209;-76
2021/03/21 01:36:41;;;;;;;4.67;3.17;;;7.10;99.90;;;;;;4970820;28;20257;-77
2021/03/21 01:39:27;;;;;;;5.93;3.60;;;7.10;99.90;;;;;;4960917;28;20200;-76
2021/03/21 01:42:14;;;;;;;4.90;3.53;;;7.10;99.90;;;;;;4957522;28;20217;-76
2021/03/21 01:44:59;;;;;;;5.47;3.80;;;7.00;99.90;;;;;;4953575;28;20214;-76
2021/03/21 01:47:45;;;;;;;5.27;3.60;;;7.00;99.90;;;;;;4959164;28;20244;-76
2021/03/21 01:50:36;;;;;;;6.10;3.33;;;7.00;99.90;;;;;;4959018;28;20940;-76
2021/03/21 01:53:24;;;;;;;4.97;3.17;;;7.00;99.90;;;;;;4972630;28;20212;-75
2021/03/21 01:56:10;;;;;;;5.53;3.10;;;7.00;99.90;;;;;;4967305;28;20365;-76
2021/03/21 01:59:00;;;;;;;5.77;3.40;;;7.00;99.90;;;;;;4966426;28;20209;-76
2021/03/21 02:01:45;;;;;;;5.30;3.53;;;7.00;99.90;;;;;;4953109;28;20218;-76
2021/03/21 02:04:31;;;;;;;6.47;4.13;;;7.00;99.90;;;;;;4970262;28;20290;-76
2021/03/21 02:07:30;;;;;;;6.07;3.93;;;7.00;99.90;;;;;;4968096;28;20230;-76
2021/03/21 02:10:23;;;;;;;5.23;4.10;;;7.00;99.90;;;;;;4961380;28;20221;-76
2021/03/21 02:13:15;;;;;;;6.20;4.33;;;7.00;99.90;;;;;;4958389;28;20197;-76
2021/03/21 02:16:04;;;;;;;5.53;4.33;;;7.00;99.90;;;;;;4958299;28;20269;-76
2021/03/21 02:18:56;;;;;;;5.87;5.00;;;7.00;99.90;;;;;;4972475;28;20213;-76
2021/03/21 02:21:45;;;;;;;8.83;6.50;;;7.00;99.90;;;;;;4959306;28;20281;-75
2021/03/21 02:25:03;;;;;;;7.87;5.50;;;7.00;99.90;;;;;;4967915;28;20213;-75
2021/03/21 02:28:08;;;;;;;6.03;4.57;;;7.00;99.90;;;;;;4972094;28;20202;-75
2021/03/21 02:30:58;;;;;;;6.67;4.90;;;7.00;99.90;;;;;;4963928;28;20716;-75
2021/03/21 02:33:50;;;;;;;6.43;4.83;;;7.00;99.90;;;;;;4968450;28;20213;-75
2021/03/21 02:36:40;;;;;;;7.00;5.00;;;7.00;99.90;;;;;;4961399;28;20298;-75
2021/03/21 02:39:31;;;;;;;6.37;4.67;;;7.00;99.90;;;;;;4958796;28;20205;-76
2021/03/21 02:42:22;;;;;;;6.73;4.57;;;7.00;99.90;;;;;;4969187;28;20209;-75
2021/03/21 02:45:15;;;;;;;9.63;5.50;;;7.00;99.90;;;;;;4966919;28;20249;-75
2021/03/21 02:48:08;;;;;;;8.33;5.63;;;7.00;99.90;;;;;;4960668;28;20205;-76
2021/03/21 02:50:56;;;;;;;9.33;6.57;;;7.00;99.90;;;;;;4972530;28;20686;-76
2021/03/21 02:53:45;;;;;;;8.67;6.30;;;7.00;99.90;;;;;;4964295;28;20226;-75
2021/03/21 02:56:31;;;;;;;9.87;6.80;;;7.00;99.90;;;;;;4962304;28;20233;-76
2021/03/21 02:59:21;;;;;;;9.30;6.70;;;7.00;99.90;;;;;;4971751;28;20694;-75
2021/03/21 03:02:10;;;;;;;12.07;7.43;;;7.00;99.90;;;;;;4972796;28;20261;-76
2021/03/21 03:05:05;;;;;;;12.63;8.87;;;7.00;99.90;;;;;;4963057;28;20709;-75
2021/03/21 03:07:53;;;;;;;12.73;9.00;;;7.00;99.90;;;;;;4973745;28;20566;-75
2021/03/21 03:10:44;;;;;;;13.50;8.80;;;7.00;99.90;;;;;;4962659;28;20205;-75
2021/03/21 03:13:34;;;;;;;16.57;11.20;;;7.00;99.90;;;;;;4968631;28;20207;-75
2021/03/21 03:16:24;;;;;;;17.07;11.57;;;7.00;99.90;;;;;;4966628;28;20757;-75
2021/03/21 03:19:18;;;;;;;22.93;15.30;;;7.00;99.90;;;;;;4974935;28;20205;-75
2021/03/21 03:22:09;;;;;;;24.10;15.30;;;7.00;99.90;;;;;;4973678;28;20213;-75
2021/03/21 03:25:06;;;;;;;24.60;16.60;;;7.00;99.90;;;;;;4964607;28;20689;-75
2021/03/21 03:28:05;;;;;;;27.10;18.23;;;7.00;99.90;;;;;;4974091;28;20293;-75
2021/03/21 03:30:54;;;;;;;26.83;18.30;;;7.10;99.90;;;;;;4974530;28;20210;-76
2021/03/21 03:33:40;;;;;;;30.63;21.17;;;7.10;99.90;;;;;;4955780;28;20269;-76
2021/03/21 03:36:25;;;;;;;30.23;20.80;;;7.10;99.90;;;;;;4974450;28;20241;-76
2021/03/21 03:39:11;;;;;;;32.67;20.87;;;7.10;99.90;;;;;;4973892;28;20689;-75
2021/03/21 03:42:01;;;;;;;32.60;22.13;;;7.10;99.90;;;;;;4975669;28;20252;-75
2021/03/21 03:45:03;;;;;;;33.63;22.43;;;7.10;99.90;;;;;;4964305;28;20210;-76
2021/03/21 03:47:59;;;;;;;32.93;22.20;;;7.10;99.90;;;;;;4973513;28;20225;-75
2021/03/21 03:50:53;;;;;;;30.73;20.67;;;7.10;99.90;;;;;;4970746;28;20280;-76
2021/03/21 03:53:58;;;;;;;30.70;20.30;;;7.10;99.90;;;;;;4963782;28;20629;-75
2021/03/21 03:56:49;;;;;;;35.90;21.27;;;7.10;99.90;;;;;;4961957;28;20232;-75
2021/03/21 03:59:58;;;;;;;37.03;21.67;;;7.10;99.90;;;;;;4969760;28;20339;-76
2021/03/21 04:02:54;;;;;;;34.53;21.77;;;7.10;99.90;;;;;;4971492;28;20364;-76
2021/03/21 04:05:44;;;;;;;32.50;21.17;;;7.10;99.90;;;;;;4969866;28;20281;-76
2021/03/21 04:08:36;;;;;;;33.47;22.03;;;7.10;99.90;;;;;;4969533;28;20577;-76
2021/03/21 04:11:29;;;;;;;35.53;22.07;;;7.10;99.90;;;;;;4966058;28;20210;-75
2021/03/21 04:14:22;;;;;;;34.70;22.47;;;7.10;99.90;;;;;;4974661;28;20677;-75
2021/03/21 04:17:15;;;;;;;37.20;22.83;;;7.10;99.90;;;;;;4974398;28;20265;-75
2021/03/21 04:20:05;;;;;;;36.53;22.73;;;7.10;99.90;;;;;;4974807;28;20211;-75
2021/03/21 04:23:00;;;;;;;33.20;22.37;;;7.10;99.90;;;;;;4976951;28;20193;-75
2021/03/21 04:25:49;;;;;;;34.33;22.27;;;7.10;99.90;;;;;;4996364;28;20530;-75
2021/03/21 04:28:41;;;;;;;35.13;22.03;;;7.10;99.90;;;;;;4984780;28;20177;-75
2021/03/21 04:31:28;;;;;;;37.70;22.50;;;7.20;99.90;;;;;;4996819;28;20193;-75
2021/03/21 04:34:17;;;;;;;32.13;20.57;;;7.10;99.90;;;;;;4962129;28;20248;-76
2021/03/21 04:37:03;;;;;;;33.20;20.93;;;7.10;99.90;;;;;;4972263;28;20273;-75
2021/03/21 04:39:51;;;;;;;33.53;20.33;;;7.20;99.90;;;;;;4974408;28;20253;-75
2021/03/21 04:42:41;;;;;;;32.60;20.57;;;7.10;99.90;;;;;;4958339;28;20201;-76
2021/03/21 04:45:31;;;;;;;32.03;19.73;;;7.20;99.90;;;;;;4973943;28;20245;-75
2021/03/21 04:48:21;;;;;;;29.60;18.63;;;7.10;99.90;;;;;;4962986;28;20689;-75
2021/03/21 04:51:11;;;;;;;27.70;18.00;;;7.10;99.90;;;;;;4973395;28;20213;-75
2021/03/21 04:54:00;;;;;;;26.13;15.57;;;7.10;99.90;;;;;;4972229;28;20213;-75
2021/03/21 04:56:50;;;;;;;28.53;16.97;;;7.20;99.90;;;;;;4964065;28;20232;-75
2021/03/21 04:59:36;;;;;;;25.37;14.50;;;7.10;99.90;;;;;;4963019;28;20204;-75
2021/03/21 05:02:27;;;;;;;25.83;15.37;;;7.10;99.90;;;;;;4973515;28;20225;-75
2021/03/21 05:05:21;;;;;;;23.40;14.47;;;7.10;99.90;;;;;;4964578;28;20269;-75
2021/03/21 05:08:10;;;;;;;23.33;13.80;;;7.20;99.90;;;;;;4958469;28;20206;-75
2021/03/21 05:10:59;;;;;;;21.73;12.60;;;7.20;99.90;;;;;;4964723;28;20218;-75
2021/03/21 05:13:51;;;;;;;25.97;14.43;;;7.10;99.90;;;;;;4959360;28;20212;-76
2021/03/21 05:16:47;;;;;;;25.37;13.40;;;7.10;99.90;;;;;;4967009;28;20277;-75
2021/03/21 05:19:42;;;;;;;24.20;13.93;;;7.20;99.90;;;;;;4964633;28;20213;-75
2021/03/21 05:22:45;;;;;;;21.40;12.67;;;7.10;99.90;;;;;;4972650;28;20636;-75
2021/03/21 05:25:36;;;;;;;27.10;13.87;;;7.10;99.90;;;;;;4971424;28;20236;-75
2021/03/21 05:28:39;;;;;;;22.77;12.87;;;7.10;99.90;;;;;;4971741;28;20272;-75
2021/03/21 05:31:26;;;;;;;23.03;13.00;;;7.10;99.90;;;;;;4968981;28;20230;-75
2021/03/21 05:34:12;;;;;;;22.43;12.23;;;7.10;99.90;;;;;;4959383;28;20272;-75
2021/03/21 05:37:15;;;;;;;26.07;12.80;;;7.10;99.90;;;;;;4972177;28;20229;-75
2021/03/21 05:40:27;;;;;;;23.50;12.70;;;7.10;99.90;;;;;;4970643;28;20597;-75
2021/03/21 05:43:43;;;;;;;19.20;11.43;;;7.10;99.90;;;;;;4971928;28;20210;-75
2021/03/21 05:46:47;;;;;;;24.07;11.33;;;7.10;99.90;;;;;;4961510;28;20645;-75
2021/03/21 05:49:56;;;;;;;23.17;12.13;;;7.10;99.90;;;;;;4963852;28;20212;-75
2021/03/21 05:53:13;;;;;;;21.43;10.53;;;7.10;99.90;;;;;;4970919;28;20600;-75
2021/03/21 05:56:12;;;;;;;21.20;11.10;;;7.10;99.90;;;;;;4970665;28;20313;-75
2021/03/21 05:59:19;;;;;;;17.50;9.40;;;7.10;99.90;;;;;;4965925;28;20290;-75
2021/03/21 06:02:20;;;;;;;15.10;7.67;;;7.10;99.90;;;;;;4963203;28;20217;-76
2021/03/21 06:05:56;;;;;;;14.77;6.13;;;7.10;99.90;;;;;;4963544;28;20228;-75
2021/03/21 06:08:54;;;;;;;15.30;6.57;;;7.10;99.90;;;;;;4966846;28;20200;-75
2021/03/21 06:11:56;;;;;;;13.03;6.20;;;7.10;99.90;;;;;;4968068;28;20210;-75
2021/03/21 06:15:14;;;;;;;14.50;5.03;;;7.10;99.90;;;;;;4959183;28;20202;-75
2021/03/21 06:18:21;;;;;;;12.73;5.27;;;7.10;99.90;;;;;;4963817;28;20597;-75
2021/03/21 06:21:46;;;;;;;8.73;4.63;;;7.10;99.90;;;;;;4961619;28;20733;-75
2021/03/21 06:25:03;;;;;;;10.13;4.10;;;7.10;99.90;;;;;;4964637;28;20245;-75
2021/03/21 06:28:20;;;;;;;10.93;3.60;;;7.10;99.90;;;;;;4965114;28;20210;-75
2021/03/21 06:31:56;;;;;;;13.10;3.60;;;7.10;99.90;;;;;;4969076;28;20761;-75
2021/03/21 06:34:47;;;;;;;10.33;3.13;;;7.10;99.90;;;;;;4966560;28;20256;-75
2021/03/21 06:38:06;;;;;;;14.13;3.50;;;7.10;99.90;;;;;;4969486;28;20790;-75
2021/03/21 06:41:09;;;;;;;14.73;3.83;;;7.20;99.90;;;;;;4950158;28;20217;-75
2021/03/21 06:44:24;;;;;;;11.77;3.20;;;7.20;99.90;;;;;;4966495;28;20229;-75
2021/03/21 06:47:33;;;;;;;8.97;3.10;;;7.20;99.90;;;;;;4959947;28;20224;-75
2021/03/21 06:50:32;;;;;;;8.70;2.23;;;7.30;99.90;;;;;;4953673;28;20217;-75
2021/03/21 06:53:26;;;;;;;8.47;2.10;;;7.30;99.90;;;;;;4965543;28;20213;-75
2021/03/21 06:56:44;;;;;;;9.13;2.57;;;7.30;99.90;;;;;;4964211;28;20603;-75
2021/03/21 06:59:53;;;;;;;7.93;2.40;;;7.30;99.90;;;;;;4962407;28;20229;-75
2021/03/21 07:12:35;;;;;;;6.47;1.90;;;7.40;99.90;;;;;;4960918;28;20277;-79
2021/03/21 07:15:46;;;;;;;8.50;1.63;;;7.50;99.90;;;;;;4979623;28;20285;-79
2021/03/21 07:19:01;;;;;;;10.90;2.73;;;7.50;99.90;;;;;;4969040;28;20238;-79
2021/03/21 07:22:24;;;;;;;8.37;2.47;;;7.50;99.90;;;;;;4971734;23;20266;-76
2021/03/21 07:25:43;;;;;;;9.83;2.47;;;7.60;99.90;;;;;;4918637;28;20743;-76
2021/03/21 07:29:01;;;;;;;9.40;2.47;;;7.60;99.90;;;;;;4965540;28;20334;-76
2021/03/21 07:32:00;;;;;;;16.60;2.43;;;7.70;99.90;;;;;;4967133;28;20624;-76
2021/03/21 07:35:22;;;;;;;7.83;1.97;;;7.70;99.90;;;;;;4972747;28;20581;-76
2021/03/21 07:38:18;;;;;;;10.83;1.77;;;7.70;99.90;;;;;;4973468;28;20225;-76
2021/03/21 07:41:11;;;;;;;7.60;2.07;;;7.80;99.90;;;;;;4972958;23;20230;-80
2021/03/21 07:44:09;;;;;;;7.03;1.77;;;7.80;99.90;;;;;;4951731;28;20254;-79
2021/03/21 07:47:21;;;;;;;7.03;1.80;;;7.90;99.90;;;;;;4955050;28;20218;-79
2021/03/21 07:50:32;;;;;;;9.43;2.47;;;7.90;99.90;;;;;;4952585;29;20229;-80
2021/03/21 07:53:28;;;;;;;11.07;2.87;;;8.00;99.90;;;;;;4943610;29;20210;-80
2021/03/21 07:56:18;;;;;;;15.57;2.30;;;8.10;99.90;;;;;;4942387;29;20635;-79
2021/03/21 07:59:07;;;;;;;11.53;2.17;;;8.10;99.90;;;;;;4943762;29;20651;-80
2021/03/21 08:01:53;;;;;;;8.83;2.07;;;8.20;99.90;;;;;;4951594;29;20210;-80
2021/03/21 08:04:46;;;;;;;18.23;5.07;;;8.30;99.90;;;;;;4944279;29;20210;-80
2021/03/21 08:07:34;;;;;;;10.67;2.30;;;8.40;99.90;;;;;;4942105;29;20225;-79
2021/03/21 08:10:24;;;;;;;12.17;3.03;;;8.50;99.90;;;;;;4948021;29;20597;-80
2021/03/21 08:13:15;;;;;;;11.67;3.20;;;8.60;99.90;;;;;;4939033;29;20214;-80
2021/03/21 08:16:02;;;;;;;10.63;2.27;;;8.60;99.90;;;;;;4942732;29;20443;-80
2021/03/21 08:18:48;;;;;;;8.60;2.10;;;8.70;99.90;;;;;;4944702;29;20229;-80
2021/03/21 08:21:34;;;;;;;11.23;2.73;;;8.80;99.90;;;;;;4941633;29;20731;-80
2021/03/21 08:24:23;;;;;;;11.27;2.17;;;8.90;99.90;;;;;;4935790;29;20206;-80
2021/03/21 08:27:21;;;;;;;12.77;3.40;;;9.00;99.90;;;;;;4939819;29;20214;-80
2021/03/21 08:30:10;;;;;;;10.37;2.60;;;9.10;99.90;;;;;;4943290;29;20802;-81
2021/03/21 08:32:57;;;;;;;20.77;7.37;;;9.10;99.90;;;;;;4932429;29;20216;-78
2021/03/21 08:35:42;;;;;;;16.23;3.47;;;9.20;99.90;;;;;;4935884;29;20295;-78
2021/03/21 08:38:27;;;;;;;10.00;2.50;;;9.20;99.90;;;;;;4925101;29;20251;-78
2021/03/21 08:41:12;;;;;;;14.00;2.70;;;9.30;99.90;;;;;;4930801;29;20658;-78
2021/03/21 08:44:00;;;;;;;14.37;3.10;;;9.30;99.90;;;;;;4929128;29;20249;-78
2021/03/21 08:46:48;;;;;;;16.73;3.57;;;9.40;99.90;;;;;;4932507;29;20719;-78
2021/03/21 08:49:37;;;;;;;17.60;3.00;;;9.50;99.90;;;;;;4936565;29;20308;-79
2021/03/21 08:52:29;;;;;;;15.57;3.60;;;9.50;99.90;;;;;;4929426;29;20713;-78
2021/03/21 08:55:23;;;;;;;15.10;3.47;;;9.50;99.90;;;;;;4928566;29;20741;-78
2021/03/21 08:58:21;;;;;;;19.00;3.80;;;9.50;99.90;;;;;;4934925;29;20230;-81
2021/03/21 09:01:14;;;;;;;15.97;3.50;;;9.60;99.90;;;;;;4942483;29;20621;-81
2021/03/21 09:04:10;;;;;;;15.13;4.37;;;9.60;99.90;;;;;;4936870;29;20207;-81
2021/03/21 09:07:11;;;;;;;18.77;3.67;;;9.60;99.90;;;;;;4940809;29;20230;-79
2021/03/21 09:10:16;;;;;;;12.30;2.80;;;9.60;99.90;;;;;;4935887;29;20315;-78
2021/03/21 09:13:18;;;;;;;18.07;3.80;;;9.70;99.90;;;;;;4932507;29;20760;-80
2021/03/21 09:16:08;;;;;;;19.33;3.73;;;9.70;99.90;;;;;;4926810;29;20206;-79
2021/03/21 09:19:16;;;;;;;16.07;3.80;;;9.90;99.90;;;;;;4941420;29;20222;-79
2021/03/21 09:22:04;;;;;;;18.23;4.43;;;9.80;99.90;;;;;;4936966;29;20741;-80
2021/03/21 09:24:59;;;;;;;24.23;4.30;;;9.90;99.90;;;;;;4937163;29;20584;-79
2021/03/21 09:27:45;;;;;;;18.70;3.50;;;9.90;99.90;;;;;;4940337;29;20755;-80
2021/03/21 09:30:44;;;;;;;20.33;4.77;;;9.90;99.90;;;;;;4939413;29;20543;-79
2021/03/21 09:33:35;;;;;;;18.43;4.10;;;10.00;99.90;;;;;;4936920;29;20272;-79
2021/03/21 09:36:24;;;;;;;18.27;3.60;;;10.00;99.90;;;;;;4938242;29;20334;-78
2021/03/21 09:39:14;;;;;;;18.43;4.33;;;10.00;99.90;;;;;;4938650;29;20372;-79
2021/03/21 09:42:01;;;;;;;18.63;4.00;;;10.00;99.90;;;;;;4936016;29;20699;-78
2021/03/21 09:44:47;;;;;;;15.30;4.27;;;10.10;99.90;;;;;;4934007;29;20279;-78
2021/03/21 09:47:40;;;;;;;16.40;3.87;;;10.00;99.90;;;;;;4932967;29;20214;-78
2021/03/21 09:50:45;;;;;;;18.17;4.30;;;10.10;99.90;;;;;;4931071;29;20255;-78
2021/03/21 09:54:05;;;;;;;23.57;3.93;;;10.10;99.90;;;;;;4941400;29;20218;-78
2021/03/21 09:56:55;;;;;;;17.73;4.57;;;10.20;99.90;;;;;;4934269;29;20210;-78
2021/03/21 09:59:51;;;;;;;18.70;4.87;;;10.30;99.90;;;;;;4929354;29;20267;-77
2021/03/21 10:02:44;;;;;;;18.43;5.23;;;10.40;99.90;;;;;;4929736;29;20454;-77
2021/03/21 10:05:37;;;;;;;21.33;3.90;;;10.40;99.90;;;;;;4925358;29;20340;-78
2021/03/21 10:08:27;;;;;;;21.63;4.47;;;10.50;99.90;;;;;;4933495;29;20206;-78
2021/03/21 10:11:15;;;;;;;19.43;4.17;;;10.50;99.90;;;;;;4936680;29;20316;-76
2021/03/21 10:14:39;;;;;;;16.63;4.47;;;10.60;99.90;;;;;;4936056;29;20266;-79
2021/03/21 10:17:49;;;;;;;18.40;3.63;;;10.70;99.90;;;;;;4935256;29;20373;-80
2021/03/21 10:21:02;;;;;;;21.43;5.13;;;10.80;99.90;;;;;;4938932;29;20254;-79
2021/03/21 10:24:28;;;;;;;20.70;3.80;;;10.90;99.90;;;;;;4939395;29;20205;-79
2021/03/21 10:27:32;;;;;;;21.90;5.33;;;11.00;99.90;;;;;;4939360;29;20211;-79
2021/03/21 10:30:24;;;;;;;22.57;4.90;;;11.10;99.90;;;;;;4938263;29;20261;-79
2021/03/21 10:33:33;;;;;;;21.47;4.80;;;11.20;99.90;;;;;;4947054;29;20202;-79
2021/03/21 10:36:44;;;;;;;18.57;3.70;;;11.40;99.90;;;;;;4932784;29;20206;-79
2021/03/21 10:39:56;;;;;;;21.87;4.10;;;11.70;99.90;;;;;;4932140;28;20749;-80
2021/03/21 10:42:47;;;;;;;16.50;4.63;;;11.90;99.90;;;;;;4934709;29;20215;-79
2021/03/21 10:46:09;;;;;;;22.33;4.87;;;12.10;99.90;;;;;;4940810;29;20239;-78
2021/03/21 10:48:55;;;;;;;22.33;4.53;;;12.20;99.90;;;;;;4868874;29;20209;-78
2021/03/21 10:52:14;;;;;;;16.33;3.83;;;12.20;99.90;;;;;;4934877;29;20231;-77
2021/03/21 10:55:35;;;;;;;16.10;4.10;;;12.30;99.90;;;;;;4936043;29;20210;-78
2021/03/21 10:58:39;;;;;;;20.70;5.47;;;12.20;99.90;;;;;;4914788;29;20254;-77
2021/03/21 11:01:34;;;;;;;17.37;5.13;;;12.20;99.90;;;;;;4922115;29;20761;-78
2021/03/21 11:04:32;;;;;;;16.40;4.53;;;12.20;99.90;;;;;;4937887;29;20331;-78
2021/03/21 11:07:18;;;;;;;20.73;4.43;;;12.30;99.90;;;;;;4939123;29;20203;-78
2021/03/21 11:10:08;;;;;;;18.73;4.50;;;12.30;99.90;;;;;;4941426;29;20222;-79
2021/03/21 11:12:54;;;;;;;24.20;4.77;;;12.40;99.90;;;;;;4936242;29;20239;-79
2021/03/21 11:15:45;;;;;;;19.73;4.10;;;12.50;99.90;;;;;;4931814;29;20218;-79
2021/03/21 11:18:33;;;;;;;23.47;5.07;;;12.50;99.90;;;;;;4932251;29;20247;-79
2021/03/21 11:21:22;;;;;;;23.57;4.87;;;12.60;99.90;;;;;;4939324;29;20730;-77
2021/03/21 11:24:19;;;;;;;19.80;4.30;;;12.70;99.90;;;;;;4920711;29;20207;-80
2021/03/21 11:27:12;;;;;;;20.33;4.77;;;12.80;99.90;;;;;;4944807;29;20213;-80
2021/03/21 11:30:10;;;;;;;19.27;5.80;;;12.90;99.90;;;;;;4937793;29;20235;-79
2021/03/21 11:32:57;;;;;;;25.73;5.40;;;13.00;99.90;;;;;;4941478;29;20214;-79
2021/03/21 11:35:42;;;;;;;19.77;5.10;;;13.10;99.90;;;;;;4948195;29;20266;-79
2021/03/21 11:38:34;;;;;;;18.87;4.50;;;13.20;99.90;;;;;;4946266;29;20640;-79
2021/03/21 11:41:29;;;;;;;16.37;3.83;;;13.20;99.90;;;;;;4940649;29;20287;-79
2021/03/21 11:44:21;;;;;;;16.27;4.70;;;13.20;99.90;;;;;;4942375;29;20478;-79
2021/03/21 11:47:21;;;;;;;18.77;4.03;;;13.30;99.90;;;;;;4943668;29;20211;-79
2021/03/21 11:50:07;;;;;;;21.57;4.97;;;13.30;99.90;;;;;;4928286;29;20895;-79
2021/03/21 11:52:54;;;;;;;21.87;4.30;;;13.40;99.90;;;;;;4928974;29;20211;-79
2021/03/21 11:55:42;;;;;;;15.50;4.10;;;13.50;99.90;;;;;;4929992;29;20232;-79
2021/03/21 11:58:31;;;;;;;16.60;4.20;;;13.50;99.90;;;;;;4929154;29;20727;-80
2021/03/21 12:01:24;;;;;;;19.50;5.47;;;13.50;99.90;;;;;;4922799;29;20231;-80
2021/03/21 12:04:11;;;;;;;18.43;5.03;;;13.50;99.90;;;;;;4931135;29;20420;-79
2021/03/21 12:06:58;;;;;;;26.73;5.10;;;13.60;99.90;;;;;;4933626;29;20223;-79
2021/03/21 12:09:49;;;;;;;18.70;4.50;;;13.60;99.90;;;;;;4940307;29;20222;-78
2021/03/21 12:12:38;;;;;;;18.50;4.97;;;13.60;99.90;;;;;;4928891;29;20219;-79
2021/03/21 12:15:38;;;;;;;22.90;6.13;;;13.70;99.90;;;;;;4944629;29;20222;-79
2021/03/21 12:18:24;;;;;;;23.40;5.40;;;13.80;99.90;;;;;;4940310;29;20238;-79
2021/03/21 12:21:15;;;;;;;24.63;5.97;;;13.80;99.90;;;;;;4938645;29;20278;-79
2021/03/21 12:24:06;;;;;;;22.10;5.43;;;13.90;99.90;;;;;;4936531;29;20717;-80
2021/03/21 12:26:55;;;;;;;18.03;5.13;;;13.90;99.90;;;;;;4937516;29;20548;-78
2021/03/21 12:29:46;;;;;;;20.50;5.10;;;14.00;99.90;;;;;;4936447;29;20234;-80
2021/03/21 12:32:37;;;;;;;18.90;5.67;;;14.00;99.90;;;;;;4942550;29;20753;-80
2021/03/21 12:35:40;;;;;;;20.20;4.83;;;14.10;99.90;;;;;;4938757;29;20264;-80
2021/03/21 12:38:29;;;;;;;18.77;5.30;;;14.10;99.90;;;;;;4945250;29;20240;-80
2021/03/21 12:41:37;;;;;;;18.40;4.53;;;14.10;99.90;;;;;;4938244;29;20239;-80
2021/03/21 12:44:26;;;;;;;18.40;5.00;;;14.10;99.90;;;;;;4946976;29;20210;-81
2021/03/21 12:47:17;;;;;;;23.37;5.63;;;14.10;99.90;;;;;;4935270;29;20707;-80
2021/03/21 12:50:43;;;;;;;17.93;5.07;;;14.10;99.90;;;;;;4928584;29;20259;-80
2021/03/21 12:53:30;;;;;;;23.30;5.47;;;14.10;99.90;;;;;;4932658;29;20639;-81
2021/03/21 12:56:15;;;;;;;21.37;5.37;;;14.20;99.90;;;;;;4927288;29;20215;-81
2021/03/21 12:58:59;;;;;;;19.30;5.60;;;14.10;99.90;;;;;;4938974;29;20687;-80
2021/03/21 13:01:45;;;;;;;20.80;5.50;;;14.10;99.90;;;;;;4939927;29;20218;-79
2021/03/21 13:04:30;;;;;;;22.07;5.73;;;14.10;99.90;;;;;;4934917;29;20223;-80
2021/03/21 13:07:15;;;;;;;21.17;5.07;;;14.10;99.60;;;;;;4935640;29;20207;-80
2021/03/21 13:10:00;;;;;;;23.70;5.80;;;14.10;99.50;;;;;;4937732;29;20546;-80
2021/03/21 13:12:45;;;;;;;20.27;5.00;;;14.20;99.10;;;;;;4936741;29;20207;-80
2021/03/21 13:15:31;;;;;;;22.20;5.80;;;14.20;99.00;;;;;;4935591;29;20679;-80
2021/03/21 13:18:19;;;;;;;18.53;5.00;;;14.20;99.10;;;;;;4928900;29;20250;-80
2021/03/21 13:21:05;;;;;;;23.73;4.80;;;14.20;99.00;;;;;;4933293;29;20238;-80
2021/03/21 13:23:50;;;;;;;20.07;4.60;;;14.20;99.10;;;;;;4928702;29;20211;-79
2021/03/21 13:26:35;;;;;;;21.70;4.83;;;14.20;99.10;;;;;;4934275;29;20227;-78
2021/03/21 13:29:20;;;;;;;21.33;5.60;;;14.20;99.00;;;;;;4932177;29;20223;-80
2021/03/21 13:32:06;;;;;;;22.43;4.83;;;14.20;98.50;;;;;;4933787;29;20207;-80
2021/03/21 13:34:52;;;;;;;19.70;5.00;;;14.20;98.70;;;;;;4936290;29;20218;-79
2021/03/21 13:37:37;;;;;;;15.97;4.50;;;14.10;99.40;;;;;;4928703;29;20218;-79
2021/03/21 13:40:26;;;;;;;21.80;5.80;;;14.00;99.80;;;;;;4937661;29;20264;-80
2021/03/21 13:43:13;;;;;;;21.27;5.57;;;14.00;99.10;;;;;;4942447;29;20211;-80
2021/03/21 13:46:00;;;;;;;23.03;6.00;;;14.00;99.70;;;;;;4951496;29;20236;-80
2021/03/21 13:48:45;;;;;;;19.10;5.10;;;13.80;99.90;;;;;;4950241;29;20226;-80
2021/03/21 13:51:30;;;;;;;20.20;5.87;;;13.80;99.90;;;;;;4953080;29;20231;-82
2021/03/21 13:54:17;;;;;;;17.37;5.13;;;13.70;99.90;;;;;;4948562;29;20266;-81
2021/03/21 13:57:03;;;;;;;22.07;5.73;;;13.60;99.90;;;;;;4926948;29;20215;-80
2021/03/21 13:59:49;;;;;;;23.90;5.30;;;13.50;99.70;;;;;;4931539;29;20232;-81
2021/03/21 14:02:34;;;;;;;21.03;5.23;;;13.40;99.70;;;;;;4934938;29;20222;-81
2021/03/21 14:05:20;;;;;;;21.07;4.80;;;13.30;99.90;;;;;;4929103;29;20213;-79
2021/03/21 14:08:06;;;;;;;20.80;5.87;;;13.20;99.90;;;;;;4928959;29;20290;-79
2021/03/21 14:10:53;;;;;;;29.70;5.93;;;13.10;99.90;;;;;;4937174;29;20231;-80
2021/03/21 14:13:38;;;;;;;20.90;4.47;;;13.00;99.90;;;;;;4919691;29;20328;-80
2021/03/21 14:16:23;;;;;;;24.17;5.30;;;12.90;99.90;;;;;;4934536;29;20222;-79
2021/03/21 14:19:08;;;;;;;26.40;6.00;;;12.80;99.90;;;;;;4935414;29;20268;-80
2021/03/21 14:21:53;;;;;;;18.67;5.10;;;12.70;99.90;;;;;;4941376;29;20290;-80
2021/03/21 14:24:37;;;;;;;20.23;5.17;;;12.60;99.90;;;;;;4938692;29;20234;-80
2021/03/21 14:27:23;;;;;;;26.10;5.17;;;12.60;99.90;;;;;;4930645;29;20229;-79
2021/03/21 14:30:11;;;;;;;27.80;5.53;;;12.50;99.90;;;;;;4937260;29;20227;-80
2021/03/21 14:32:57;;;;;;;23.87;5.57;;;12.50;99.90;;;;;;4929096;29;20227;-82
2021/03/21 14:35:46;;;;;;;22.30;5.57;;;12.40;99.90;;;;;;4927910;29;20227;-80
2021/03/21 14:38:31;;;;;;;28.60;5.70;;;12.40;99.90;;;;;;4939334;29;20239;-80
2021/03/21 14:41:16;;;;;;;14.90;4.23;;;12.30;99.90;;;;;;4932625;29;20658;-80
2021/03/21 14:44:01;;;;;;;19.17;5.27;;;12.30;99.90;;;;;;4929382;29;20214;-80
2021/03/21 14:46:46;;;;;;;19.87;4.83;;;12.20;99.90;;;;;;4943111;29;20291;-80
2021/03/21 14:49:31;;;;;;;21.50;4.73;;;12.20;99.90;;;;;;4937264;29;20883;-80
2021/03/21 14:52:17;;;;;;;18.60;4.53;;;12.10;99.90;;;;;;4936971;29;20210;-79
2021/03/21 14:55:02;;;;;;;17.07;4.77;;;12.00;99.90;;;;;;4937613;29;20767;-80
2021/03/21 14:57:47;;;;;;;21.73;4.37;;;12.00;99.90;;;;;;4935699;29;20551;-80
2021/03/21 15:00:35;;;;;;;25.97;4.47;;;11.90;99.90;;;;;;4938952;29;20270;-79
2021/03/21 15:03:21;;;;;;;17.53;4.30;;;11.80;99.90;;;;;;4943665;29;20218;-80
2021/03/21 15:06:06;;;;;;;12.80;3.40;;;11.80;99.90;;;;;;4943847;29;20255;-80
2021/03/21 15:08:51;;;;;;;16.50;3.97;;;11.70;99.90;;;;;;4937491;29;20209;-80